EGNT - Newcastle
Distance from station: E 5mi, 14km
Updated: 10/21/2017 12:20pm
Light rain, Mostly cloudy
Light rain, Mostly cloudy
 Wind from NW
Wind: NW 8 mph , 13 km/h
Temperature: 52°F , 11°C
Dew Point: 50°F , 10°C
Humidity: 94%
Barometer: 29.15 inHg , 987 hPa
Summary: Light Rain
Clouds: Mostly Cloudy
Visibility: 2 miles , 4 km
Cloud details: Few Clouds 500 ft
Mostly Cloudy 1000 ft
2017/10/21 19:20 EGNT 211920Z 31007KT 4000 -RA FEW005 BKN010 11/10 Q0987